Time;durP1;ratioP1;P1;durP2;ratioP2;P2;SDS_P1;SDS_P2;PMS_P1;PMS_P2;Temp;Humidity;BMP_temperature;BMP_pressure;BME280_temperature;BME280_humidity;BME280_pressure;Samples;Min_cycle;Max_cycle;Signal;HPM_P1;HPM_P2
2023/03/31 00:01:19;;;;;;;51.67;8.23;;;9.30;99.90;;;;;;5077707;28;20052;-81
2023/03/31 00:03:45;;;;;;;47.63;7.55;;;9.30;99.90;;;;;;5077621;28;20411;-81
2023/03/31 00:06:16;;;;;;;46.22;6.18;;;9.30;99.90;;;;;;5095657;28;20535;-81
2023/03/31 00:08:43;;;;;;;43.13;6.65;;;9.30;99.90;;;;;;5095499;28;20050;-81
2023/03/31 00:11:08;;;;;;;60.63;7.28;;;9.30;99.90;;;;;;5095527;28;20063;-81
2023/03/31 00:13:35;;;;;;;48.22;7.20;;;9.30;99.90;;;;;;5077539;28;20082;-80
2023/03/31 00:16:09;;;;;;;43.10;7.97;;;9.30;99.90;;;;;;5077218;28;20052;-80
2023/03/31 00:18:35;;;;;;;50.78;7.57;;;9.30;99.90;;;;;;5077133;28;20056;-80
2023/03/31 00:21:13;;;;;;;51.03;8.07;;;9.30;99.90;;;;;;5077490;28;20040;-80
2023/03/31 00:23:39;;;;;;;52.78;8.55;;;9.30;99.90;;;;;;5077102;28;20104;-80
2023/03/31 00:26:06;;;;;;;51.92;7.15;;;9.30;99.90;;;;;;5076983;28;20082;-81
2023/03/31 00:28:32;;;;;;;50.70;7.28;;;9.20;99.90;;;;;;5095162;28;20058;-81
2023/03/31 00:31:02;;;;;;;50.10;7.03;;;9.30;99.90;;;;;;5076879;28;20390;-81
2023/03/31 00:33:28;;;;;;;55.30;7.35;;;9.20;99.90;;;;;;5095136;28;20044;-81
2023/03/31 00:35:54;;;;;;;43.90;7.57;;;9.30;99.90;;;;;;5076807;28;20126;-81
2023/03/31 00:38:20;;;;;;;47.35;7.63;;;9.20;99.90;;;;;;5076612;28;20119;-81
2023/03/31 00:40:47;;;;;;;41.63;6.95;;;9.30;99.90;;;;;;5094726;28;20119;-81
2023/03/31 00:43:31;;;;;;;52.80;7.57;;;9.20;99.90;;;;;;5076647;28;20395;-81
2023/03/31 00:46:17;;;;;;;51.08;7.72;;;9.30;99.90;;;;;;5095003;28;20040;-81
2023/03/31 00:48:51;;;;;;;51.25;8.70;;;9.20;99.90;;;;;;5094714;28;20047;-80
2023/03/31 00:51:20;;;;;;;41.17;6.68;;;9.20;99.90;;;;;;5094811;28;20039;-80
2023/03/31 00:53:56;;;;;;;45.83;6.90;;;9.20;99.90;;;;;;5076416;28;20516;-81
2023/03/31 00:56:23;;;;;;;37.92;6.97;;;9.20;99.90;;;;;;5094731;28;20127;-80
2023/03/31 00:58:49;;;;;;;48.22;6.28;;;9.20;99.90;;;;;;5076108;28;20052;-80
2023/03/31 01:01:23;;;;;;;53.13;8.05;;;9.20;99.90;;;;;;5076481;28;20052;-81
2023/03/31 01:03:49;;;;;;;42.17;6.78;;;9.20;99.90;;;;;;5094483;28;20089;-81
2023/03/31 01:06:18;;;;;;;49.60;7.00;;;9.10;99.90;;;;;;5076409;28;20056;-80
2023/03/31 01:08:46;;;;;;;48.97;6.43;;;9.10;99.90;;;;;;5094375;28;20046;-80
2023/03/31 01:11:15;;;;;;;48.65;6.32;;;9.00;99.90;;;;;;5076143;28;20044;-80
2023/03/31 01:13:42;;;;;;;37.97;6.25;;;9.00;99.90;;;;;;5076055;28;20123;-80
2023/03/31 01:16:08;;;;;;;42.38;8.32;;;9.10;99.90;;;;;;5094162;28;20070;-80
2023/03/31 01:18:34;;;;;;;39.85;5.82;;;9.10;99.90;;;;;;5094274;28;20044;-81
2023/03/31 01:21:17;;;;;;;43.30;6.50;;;9.00;99.90;;;;;;5076054;28;20048;-81
2023/03/31 01:24:02;;;;;;;38.90;6.50;;;9.00;99.90;;;;;;5076185;28;20055;-81
2023/03/31 01:26:40;;;;;;;44.53;6.97;;;9.00;99.90;;;;;;5075886;28;20501;-81
2023/03/31 01:29:43;;;;;;;40.50;6.75;;;9.00;99.90;;;;;;5094327;28;20098;-81
2023/03/31 01:32:42;;;;;;;41.10;6.28;;;9.00;99.90;;;;;;5076171;28;20400;-81
2023/03/31 01:35:23;;;;;;;38.78;5.72;;;9.00;99.90;;;;;;5076191;28;20044;-81
2023/03/31 01:37:55;;;;;;;41.25;5.40;;;9.00;99.90;;;;;;5076139;28;20051;-81
2023/03/31 01:40:48;;;;;;;37.40;5.82;;;8.90;99.90;;;;;;5093918;28;20526;-81
2023/03/31 01:43:17;;;;;;;48.10;7.65;;;9.00;99.90;;;;;;5093939;28;20075;-81
2023/03/31 01:46:27;;;;;;;41.30;7.38;;;8.90;99.90;;;;;;5075652;28;20040;-81
2023/03/31 01:48:59;;;;;;;33.47;5.70;;;8.90;99.90;;;;;;5075676;28;20052;-81
2023/03/31 01:51:49;;;;;;;44.03;7.75;;;9.00;99.90;;;;;;5075647;28;20055;-81
2023/03/31 01:54:19;;;;;;;42.95;6.72;;;8.90;99.90;;;;;;5075462;28;20126;-81
2023/03/31 01:57:04;;;;;;;37.35;7.07;;;9.00;99.90;;;;;;5076136;28;20127;-80
2023/03/31 01:59:42;;;;;;;33.47;5.57;;;9.00;99.90;;;;;;5071428;28;20492;-81
2023/03/31 02:02:16;;;;;;;36.50;7.55;;;9.10;99.90;;;;;;5071307;28;20044;-80
2023/03/31 02:04:50;;;;;;;39.63;5.80;;;9.10;99.90;;;;;;5071980;28;20158;-80
2023/03/31 02:07:21;;;;;;;45.03;6.57;;;9.10;99.90;;;;;;5075057;28;20049;-80
2023/03/31 02:09:52;;;;;;;47.13;7.03;;;9.10;99.90;;;;;;5074971;28;20399;-80
2023/03/31 02:12:20;;;;;;;35.22;5.90;;;9.10;99.90;;;;;;5074732;28;20051;-80
2023/03/31 02:14:49;;;;;;;37.03;7.00;;;9.10;99.90;;;;;;5075080;28;20048;-81
2023/03/31 02:17:18;;;;;;;33.80;5.88;;;9.10;99.90;;;;;;5074934;28;20048;-80
2023/03/31 02:19:49;;;;;;;41.80;6.97;;;9.10;99.90;;;;;;5074852;28;20051;-80
2023/03/31 02:22:18;;;;;;;41.05;7.22;;;9.10;99.90;;;;;;5074711;28;20462;-81
2023/03/31 02:24:46;;;;;;;41.53;6.00;;;9.10;99.90;;;;;;5074512;28;20048;-80
2023/03/31 02:27:27;;;;;;;36.17;5.40;;;9.10;99.90;;;;;;5074578;28;20047;-81
2023/03/31 02:29:55;;;;;;;41.35;6.80;;;9.00;99.90;;;;;;5074928;28;20143;-81
2023/03/31 02:32:26;;;;;;;33.80;6.40;;;9.00;99.90;;;;;;5074510;28;20483;-81
2023/03/31 02:34:54;;;;;;;31.92;6.00;;;9.00;99.90;;;;;;5074453;28;20440;-81
2023/03/31 02:37:20;;;;;;;28.80;6.22;;;9.00;99.90;;;;;;5074360;28;20500;-81
2023/03/31 02:39:49;;;;;;;32.53;6.00;;;9.10;99.90;;;;;;5074266;28;20094;-81
2023/03/31 02:42:15;;;;;;;32.08;7.38;;;9.10;99.90;;;;;;5074270;28;20166;-81
2023/03/31 02:44:41;;;;;;;34.38;6.32;;;9.10;99.90;;;;;;5074330;28;20131;-81
2023/03/31 02:47:12;;;;;;;33.22;6.10;;;9.10;99.90;;;;;;5074193;28;20051;-81
2023/03/31 02:49:42;;;;;;;40.03;6.18;;;9.10;99.90;;;;;;5074218;28;20123;-81
2023/03/31 02:52:44;;;;;;;46.13;5.75;;;9.10;99.90;;;;;;5074469;28;20042;-81
2023/03/31 02:55:14;;;;;;;33.10;5.43;;;9.00;99.90;;;;;;5074282;28;20480;-81
2023/03/31 02:58:22;;;;;;;40.72;6.03;;;9.10;99.90;;;;;;5052095;22;1088748;-81
2023/03/31 03:01:04;;;;;;;32.13;7.10;;;9.10;99.90;;;;;;5054475;28;20127;-81
2023/03/31 03:04:24;;;;;;;33.08;5.50;;;9.00;99.90;;;;;;5075406;28;20106;-81
2023/03/31 03:07:28;;;;;;;33.30;5.35;;;9.10;99.90;;;;;;4998025;28;20533;-81
2023/03/31 03:10:11;;;;;;;37.80;5.30;;;9.00;99.90;;;;;;5031481;22;20047;-82
2023/03/31 03:12:59;;;;;;;27.73;6.30;;;9.10;99.90;;;;;;5078637;28;20052;-82
2023/03/31 03:15:27;;;;;;;34.03;5.53;;;9.10;99.90;;;;;;5078293;28;20048;-81
2023/03/31 03:18:02;;;;;;;37.03;4.85;;;9.10;99.90;;;;;;5078588;28;20051;-81
2023/03/31 03:20:28;;;;;;;33.80;6.15;;;9.10;99.90;;;;;;5078445;28;20048;-81
2023/03/31 03:22:59;;;;;;;32.72;5.15;;;9.20;99.90;;;;;;5078084;28;20047;-81
2023/03/31 03:25:37;;;;;;;36.55;5.57;;;9.10;99.90;;;;;;5078418;28;20501;-81
2023/03/31 03:28:03;;;;;;;39.90;5.30;;;9.00;99.90;;;;;;5078181;28;20040;-81
2023/03/31 03:30:28;;;;;;;34.95;5.60;;;9.10;99.90;;;;;;5078058;28;20055;-82
2023/03/31 03:32:54;;;;;;;44.75;5.93;;;9.00;99.90;;;;;;5078021;28;20088;-82
2023/03/31 03:35:38;;;;;;;30.02;4.82;;;9.10;99.90;;;;;;5077691;28;20472;-81
2023/03/31 03:38:06;;;;;;;;;;;9.00;99.90;;;;;;5078618;28;20407;-81
2023/03/31 03:40:31;;;;;;;29.33;5.35;;;9.10;99.90;;;;;;5077543;28;20012;-81
2023/03/31 03:42:57;;;;;;;31.42;5.97;;;9.10;99.90;;;;;;5078079;28;20086;-81
2023/03/31 03:45:31;;;;;;;27.35;4.72;;;9.10;99.90;;;;;;5095454;28;20043;-81
2023/03/31 03:47:56;;;;;;;33.95;4.78;;;9.10;99.90;;;;;;5095931;28;20408;-81
2023/03/31 03:50:25;;;;;;;32.70;4.80;;;9.10;99.90;;;;;;5077683;28;20044;-81
2023/03/31 03:52:51;;;;;;;25.15;6.07;;;9.10;99.90;;;;;;5077716;28;20056;-81
2023/03/31 03:55:17;;;;;;;34.03;6.35;;;9.10;99.90;;;;;;5077860;28;20193;-82
2023/03/31 03:57:42;;;;;;;20.58;4.38;;;9.10;99.90;;;;;;5077949;28;20510;-82
2023/03/31 04:00:11;;;;;;;33.35;6.18;;;9.10;99.90;;;;;;5077366;28;20044;-82
2023/03/31 04:02:38;;;;;;;27.58;5.18;;;9.10;99.90;;;;;;5077636;28;20048;-81
2023/03/31 04:05:04;;;;;;;25.10;3.78;;;9.10;99.90;;;;;;5077412;28;20048;-82
2023/03/31 04:07:32;;;;;;;26.25;4.70;;;9.10;99.90;;;;;;5095340;28;20059;-81
2023/03/31 04:10:08;;;;;;;28.50;4.38;;;9.00;99.90;;;;;;5077116;28;20056;-82
2023/03/31 04:12:34;;;;;;;27.83;7.00;;;9.10;99.90;;;;;;5077356;28;20048;-81
2023/03/31 04:15:06;;;;;;;29.75;6.30;;;9.10;99.90;;;;;;5077033;28;20075;-81
2023/03/31 04:17:33;;;;;;;31.17;5.13;;;9.10;99.90;;;;;;5077414;28;20040;-81
2023/03/31 04:20:08;;;;;;;23.60;5.25;;;9.10;99.90;;;;;;5077225;28;20079;-81
2023/03/31 04:22:51;;;;;;;21.52;4.75;;;9.20;99.90;;;;;;5077528;28;20089;-81
2023/03/31 04:25:29;;;;;;;;;;;9.20;99.90;;;;;;5077436;28;20055;-81
2023/03/31 04:28:00;;;;;;;30.17;6.03;;;9.20;99.90;;;;;;5076160;28;19916;-81
2023/03/31 04:30:29;;;;;;;22.52;4.93;;;9.20;99.90;;;;;;5077277;28;20043;-81
2023/03/31 04:33:02;;;;;;;32.15;5.93;;;9.20;99.90;;;;;;5077061;28;20036;-81
2023/03/31 04:35:51;;;;;;;30.38;5.72;;;9.20;99.90;;;;;;5077237;28;20132;-81
2023/03/31 04:38:21;;;;;;;25.50;5.82;;;9.20;99.90;;;;;;5076390;28;20048;-81
2023/03/31 04:40:49;;;;;;;24.27;6.45;;;9.20;99.90;;;;;;5076726;28;20105;-81
2023/03/31 04:43:17;;;;;;;23.27;4.97;;;9.20;99.90;;;;;;5076494;28;20466;-81
2023/03/31 04:45:46;;;;;;;21.55;5.25;;;9.20;99.90;;;;;;5076406;28;20044;-82
2023/03/31 04:48:12;;;;;;;25.40;6.60;;;9.20;99.90;;;;;;5076727;28;20483;-83
2023/03/31 04:50:38;;;;;;;25.38;6.15;;;9.20;99.90;;;;;;5076718;28;20052;-83
2023/03/31 04:53:07;;;;;;;25.13;7.15;;;9.20;99.90;;;;;;5077012;28;20398;-82
2023/03/31 04:55:35;;;;;;;29.85;7.32;;;9.10;99.90;;;;;;5076425;28;20044;-83
2023/03/31 04:58:02;;;;;;;29.02;7.63;;;9.20;99.90;;;;;;5076458;28;20088;-82
2023/03/31 05:00:28;;;;;;;37.03;7.60;;;9.20;99.90;;;;;;5076647;28;20056;-82
2023/03/31 05:02:54;;;;;;;27.42;8.07;;;9.20;99.90;;;;;;5076466;28;20044;-83
2023/03/31 05:05:20;;;;;;;22.60;6.93;;;9.20;99.90;;;;;;5076245;28;20076;-83
2023/03/31 05:07:46;;;;;;;24.08;7.90;;;9.10;99.90;;;;;;5094296;28;20044;-83
2023/03/31 05:10:13;;;;;;;33.80;8.68;;;9.10;99.90;;;;;;5076090;28;20055;-83
2023/03/31 05:12:39;;;;;;;28.30;8.65;;;9.20;99.90;;;;;;5076217;28;20048;-84
2023/03/31 05:15:06;;;;;;;25.60;7.57;;;9.20;99.90;;;;;;5076467;28;20108;-84
2023/03/31 05:17:33;;;;;;;29.10;8.82;;;9.20;99.90;;;;;;5076203;28;20047;-83
2023/03/31 05:19:59;;;;;;;32.17;9.82;;;9.20;99.90;;;;;;5076020;28;20051;-84
2023/03/31 05:22:25;;;;;;;28.02;8.25;;;9.20;99.90;;;;;;5076156;28;20044;-83
2023/03/31 05:24:51;;;;;;;24.80;9.18;;;9.20;99.90;;;;;;5075869;28;20105;-83
2023/03/31 05:27:18;;;;;;;32.25;8.95;;;9.30;99.90;;;;;;5075761;28;20086;-82
2023/03/31 05:29:43;;;;;;;27.35;9.25;;;9.20;99.90;;;;;;5075892;28;20049;-83
2023/03/31 05:32:09;;;;;;;28.40;9.63;;;9.30;99.90;;;;;;5075825;28;20043;-83
2023/03/31 05:34:35;;;;;;;29.77;9.77;;;9.30;99.90;;;;;;5075742;28;20059;-83
2023/03/31 05:37:01;;;;;;;30.60;9.23;;;9.30;99.90;;;;;;5075031;28;20043;-83
2023/03/31 05:39:31;;;;;;;32.60;8.98;;;9.40;99.90;;;;;;5075834;28;20055;-83
2023/03/31 05:41:58;;;;;;;31.00;9.38;;;9.30;99.90;;;;;;5075462;28;20043;-83
2023/03/31 05:44:25;;;;;;;25.05;8.90;;;9.40;99.90;;;;;;5075520;28;20510;-83
2023/03/31 05:46:51;;;;;;;31.88;9.25;;;9.40;99.90;;;;;;5093586;28;20055;-83
2023/03/31 05:49:16;;;;;;;39.15;10.25;;;9.40;99.90;;;;;;5075762;28;20044;-83
2023/03/31 05:51:42;;;;;;;30.05;9.57;;;9.40;99.90;;;;;;5075500;28;20491;-83
2023/03/31 05:54:08;;;;;;;32.83;12.48;;;9.40;99.90;;;;;;5075451;28;20058;-83
2023/03/31 05:56:33;;;;;;;31.40;13.43;;;9.40;99.90;;;;;;5075616;28;20044;-82
2023/03/31 05:59:00;;;;;;;30.13;10.20;;;9.40;99.90;;;;;;5075434;28;20048;-82
2023/03/31 06:01:26;;;;;;;32.22;10.65;;;9.30;99.90;;;;;;5075692;28;20109;-83
2023/03/31 06:03:52;;;;;;;31.08;10.43;;;9.50;99.90;;;;;;5075454;28;20072;-83
2023/03/31 06:06:19;;;;;;;27.27;11.23;;;9.40;99.90;;;;;;5075593;28;20086;-83
2023/03/31 06:09:29;;;;;;;35.17;10.63;;;9.40;99.90;;;;;;5075580;28;20052;-83
2023/03/31 06:11:56;;;;;;;31.73;11.85;;;9.50;99.90;;;;;;4982595;28;20102;-83
2023/03/31 06:14:22;;;;;;;32.22;10.77;;;9.50;99.90;;;;;;5047361;28;20143;-83
2023/03/31 06:16:48;;;;;;;26.02;10.63;;;9.50;99.90;;;;;;5055294;28;20068;-82
2023/03/31 06:22:54;;;;;;;30.95;11.70;;;9.50;99.90;;;;;;5073003;28;20043;-83
2023/03/31 06:25:20;;;;;;;28.35;11.52;;;9.40;99.90;;;;;;5055430;28;20044;-84
2023/03/31 06:27:49;;;;;;;29.48;10.50;;;9.50;99.90;;;;;;5055319;28;20044;-83
2023/03/31 06:30:15;;;;;;;32.05;13.13;;;9.40;99.90;;;;;;5055026;28;20488;-83
2023/03/31 06:32:40;;;;;;;29.65;11.30;;;9.50;99.90;;;;;;5054874;28;20135;-83
2023/03/31 06:35:06;;;;;;;28.75;10.10;;;9.50;99.90;;;;;;5054941;28;20052;-84
2023/03/31 06:37:32;;;;;;;28.60;10.70;;;9.50;99.90;;;;;;5072756;28;20040;-84
2023/03/31 06:39:58;;;;;;;34.88;10.38;;;9.50;99.90;;;;;;5055145;28;20045;-84
2023/03/31 06:42:23;;;;;;;27.73;10.75;;;9.50;99.90;;;;;;5055091;28;20055;-83
2023/03/31 06:44:54;;;;;;;33.20;11.15;;;9.60;99.90;;;;;;5054615;28;20044;-83
2023/03/31 06:47:20;;;;;;;32.90;10.00;;;9.50;99.90;;;;;;5072609;28;20059;-83
2023/03/31 06:49:45;;;;;;;32.53;10.15;;;9.50;99.90;;;;;;5054853;28;20048;-84
2023/03/31 06:52:11;;;;;;;24.75;11.07;;;9.60;99.90;;;;;;5075536;28;20052;-85
2023/03/31 06:54:37;;;;;;;23.95;10.25;;;9.60;99.90;;;;;;5058565;28;20051;-83
2023/03/31 06:57:02;;;;;;;25.48;10.18;;;9.60;99.90;;;;;;5075465;28;20178;-81
2023/03/31 06:59:28;;;;;;;27.08;9.40;;;9.60;99.90;;;;;;5076091;28;20407;-81
2023/03/31 07:01:54;;;;;;;28.30;9.63;;;9.70;99.90;;;;;;5076367;28;20041;-81
2023/03/31 07:04:19;;;;;;;21.83;8.38;;;9.70;99.90;;;;;;5075828;28;20064;-83
2023/03/31 07:06:45;;;;;;;20.52;7.13;;;9.70;99.90;;;;;;5058190;28;20036;-84
2023/03/31 07:09:11;;;;;;;19.67;7.05;;;9.80;99.90;;;;;;5075846;28;20044;-85
2023/03/31 07:11:41;;;;;;;20.08;8.23;;;9.70;99.90;;;;;;5057533;28;20117;-85
2023/03/31 07:14:07;;;;;;;22.67;7.13;;;9.80;99.90;;;;;;5057974;28;20413;-84
2023/03/31 07:16:32;;;;;;;21.60;7.53;;;9.70;99.90;;;;;;5075913;28;20488;-85
2023/03/31 07:18:58;;;;;;;24.13;7.10;;;9.70;99.90;;;;;;5075740;28;20040;-82
2023/03/31 07:21:25;;;;;;;15.30;6.80;;;9.70;99.90;;;;;;5075832;28;20045;-84
2023/03/31 07:23:50;;;;;;;19.75;6.95;;;9.70;99.90;;;;;;5057946;28;20059;-83
2023/03/31 07:26:16;;;;;;;14.57;6.18;;;9.70;99.90;;;;;;5057716;28;20488;-85
2023/03/31 07:28:42;;;;;;;18.70;7.15;;;9.80;99.90;;;;;;5075945;28;20043;-86
2023/03/31 07:31:12;;;;;;;17.10;7.13;;;9.80;99.90;;;;;;5057279;28;20633;-87
2023/03/31 07:33:40;;;;;;;16.33;7.03;;;9.80;99.90;;;;;;5057101;28;20048;-87
2023/03/31 07:36:07;;;;;;;18.90;5.97;;;9.70;99.90;;;;;;5057452;28;20048;-86
2023/03/31 07:38:33;;;;;;;15.15;5.85;;;9.80;99.90;;;;;;5075460;28;20066;-91
2023/03/31 07:40:59;;;;;;;16.20;6.45;;;9.80;99.90;;;;;;5057783;28;20388;-86
2023/03/31 07:43:27;;;;;;;17.02;6.20;;;9.80;99.90;;;;;;5057457;28;20052;-89
2023/03/31 07:45:53;;;;;;;19.88;6.72;;;9.80;99.90;;;;;;5075258;28;20506;-87
2023/03/31 07:48:18;;;;;;;14.02;6.25;;;9.80;99.90;;;;;;5057386;28;20076;-88
2023/03/31 07:50:44;;;;;;;14.85;6.35;;;9.70;99.90;;;;;;5057378;28;20490;-89
2023/03/31 07:53:10;;;;;;;16.95;6.43;;;9.80;99.90;;;;;;5056960;28;20045;-88
2023/03/31 07:55:36;;;;;;;17.23;5.53;;;9.70;99.90;;;;;;5057428;28;20048;-85
2023/03/31 07:58:01;;;;;;;13.98;5.38;;;9.70;99.90;;;;;;5057030;28;20422;-84
2023/03/31 08:00:27;;;;;;;14.43;5.22;;;9.70;99.90;;;;;;5057177;28;20510;-84
2023/03/31 08:02:53;;;;;;;12.57;5.95;;;9.80;99.90;;;;;;5056184;28;20040;-84
2023/03/31 08:05:20;;;;;;;12.05;5.93;;;9.70;99.90;;;;;;5056917;28;20090;-89
2023/03/31 08:12:16;;;;;;;19.92;8.02;;;9.70;99.90;;;;;;5074834;28;20453;-87
2023/03/31 08:14:43;;;;;;;15.65;7.25;;;9.80;99.90;;;;;;5130476;22;20056;-88
2023/03/31 08:17:09;;;;;;;14.57;7.78;;;9.70;99.90;;;;;;5056854;28;20518;-89
2023/03/31 08:19:35;;;;;;;16.40;6.32;;;9.70;99.90;;;;;;5056605;28;20040;-89
2023/03/31 08:22:02;;;;;;;13.07;5.32;;;9.80;99.90;;;;;;5056937;28;20048;-89
2023/03/31 08:24:27;;;;;;;13.88;6.00;;;9.80;99.90;;;;;;5056526;28;20411;-87
2023/03/31 08:26:53;;;;;;;13.15;5.05;;;9.80;99.90;;;;;;5056719;28;20476;-87
2023/03/31 08:29:19;;;;;;;15.75;5.60;;;9.90;99.90;;;;;;5056564;28;20178;-87
2023/03/31 08:31:56;;;;;;;10.88;5.53;;;9.90;99.90;;;;;;5057080;28;20048;-88
2023/03/31 08:34:22;;;;;;;15.68;6.00;;;9.90;99.90;;;;;;5056420;28;20041;-88
2023/03/31 08:36:50;;;;;;;8.57;4.05;;;9.80;99.90;;;;;;5056504;28;20204;-90
2023/03/31 08:39:16;;;;;;;21.38;9.50;;;9.80;99.90;;;;;;5056644;28;20453;-89
2023/03/31 08:41:41;;;;;;;11.60;4.93;;;9.80;99.90;;;;;;5056403;28;20079;-90
2023/03/31 08:44:16;;;;;;;17.20;6.63;;;9.90;99.90;;;;;;5056342;28;20087;-90
2023/03/31 08:46:42;;;;;;;15.15;4.88;;;9.90;99.90;;;;;;5057077;28;20181;-90
2023/03/31 08:49:15;;;;;;;10.45;4.95;;;9.90;99.90;;;;;;5056644;28;20377;-90
2023/03/31 08:51:55;;;;;;;8.15;4.03;;;9.80;99.90;;;;;;5056498;28;20399;-85
2023/03/31 08:54:44;;;;;;;9.07;3.67;;;9.80;99.90;;;;;;5056115;28;20055;-86
2023/03/31 08:57:32;;;;;;;8.93;5.13;;;9.70;99.90;;;;;;5056407;28;20066;-81
2023/03/31 09:00:05;;;;;;;5.13;2.47;;;9.70;99.90;;;;;;5056244;28;20048;-85
2023/03/31 09:06:25;;;;;;;8.05;3.78;;;9.70;99.90;;;;;;5073769;28;20097;-86
2023/03/31 09:08:57;;;;;;;8.15;4.25;;;9.70;99.90;;;;;;5055751;28;20047;-87
2023/03/31 09:11:59;;;;;;;10.13;4.38;;;9.90;99.90;;;;;;5055824;28;20049;-87
2023/03/31 09:14:45;;;;;;;11.23;5.30;;;9.90;99.90;;;;;;5052992;28;20090;-87
2023/03/31 09:17:43;;;;;;;12.95;5.88;;;9.90;99.90;;;;;;5055678;28;20415;-86
2023/03/31 09:20:14;;;;;;;12.00;5.53;;;10.00;99.90;;;;;;5054139;28;20059;-86
2023/03/31 09:22:49;;;;;;;11.27;5.95;;;10.00;99.90;;;;;;5055890;28;20147;-88
2023/03/31 09:25:31;;;;;;;13.63;6.95;;;10.00;99.90;;;;;;5055646;28;20079;-88
2023/03/31 09:27:59;;;;;;;12.57;7.30;;;10.00;99.90;;;;;;5055995;28;20044;-88
2023/03/31 09:30:34;;;;;;;13.93;6.82;;;10.00;99.90;;;;;;5055563;28;20072;-88
2023/03/31 09:33:18;;;;;;;16.30;6.60;;;10.10;99.90;;;;;;5055552;28;20045;-88
2023/03/31 09:35:44;;;;;;;14.23;6.15;;;10.10;99.90;;;;;;5056009;28;20127;-83
2023/03/31 09:38:12;;;;;;;15.40;6.50;;;10.30;99.90;;;;;;5073381;28;20442;-84
2023/03/31 09:40:37;;;;;;;12.25;5.88;;;10.40;99.90;;;;;;5073471;28;20055;-88
2023/03/31 09:43:06;;;;;;;13.32;5.93;;;10.50;99.90;;;;;;5055308;28;20044;-89
2023/03/31 09:45:34;;;;;;;11.98;5.40;;;10.50;99.90;;;;;;5055325;28;20070;-88
2023/03/31 09:48:05;;;;;;;14.25;5.63;;;10.50;99.90;;;;;;5055165;28;20469;-88
2023/03/31 09:50:35;;;;;;;14.73;5.55;;;10.50;99.90;;;;;;5055611;28;20044;-87
2023/03/31 09:53:04;;;;;;;14.55;5.80;;;10.50;99.90;;;;;;5073351;28;20041;-85
2023/03/31 09:55:51;;;;;;;14.18;5.60;;;10.50;99.90;;;;;;5055186;28;20412;-86
2023/03/31 09:58:17;;;;;;;13.63;6.35;;;10.60;99.90;;;;;;5055252;28;20056;-87
2023/03/31 10:00:59;;;;;;;14.30;5.82;;;10.80;99.90;;;;;;5055421;28;20055;-86
2023/03/31 10:03:28;;;;;;;14.88;6.03;;;10.70;99.90;;;;;;5073005;28;20052;-86
2023/03/31 10:05:57;;;;;;;13.70;6.20;;;10.80;99.90;;;;;;5055163;28;20496;-84
2023/03/31 10:08:29;;;;;;;11.98;6.00;;;10.80;99.90;;;;;;5055318;28;20040;-84
2023/03/31 10:11:00;;;;;;;13.00;5.25;;;10.80;99.90;;;;;;5073076;28;20059;-84
2023/03/31 10:13:36;;;;;;;16.58;6.25;;;10.90;99.90;;;;;;5072818;28;20044;-84
2023/03/31 10:16:08;;;;;;;12.90;6.25;;;11.00;99.90;;;;;;5055168;28;20087;-83
2023/03/31 10:18:36;;;;;;;13.88;5.82;;;11.10;99.90;;;;;;5073004;28;20552;-84
2023/03/31 10:21:05;;;;;;;13.30;6.28;;;11.10;99.90;;;;;;5054896;28;20068;-84
2023/03/31 10:23:32;;;;;;;9.85;4.95;;;11.30;99.90;;;;;;5055286;28;20043;-83
2023/03/31 10:26:00;;;;;;;16.88;5.07;;;11.20;99.90;;;;;;5073935;28;20052;-85
2023/03/31 10:28:29;;;;;;;13.85;6.40;;;11.20;99.90;;;;;;5059128;28;20036;-87
2023/03/31 10:31:00;;;;;;;16.13;5.35;;;11.30;99.90;;;;;;5056335;28;20049;-87
2023/03/31 10:33:28;;;;;;;13.98;6.10;;;11.30;99.90;;;;;;5038931;28;20037;-87
2023/03/31 10:35:58;;;;;;;13.63;5.90;;;11.10;99.90;;;;;;5049526;28;20036;-87
2023/03/31 10:38:42;;;;;;;16.77;7.43;;;11.20;99.90;;;;;;5058646;28;20096;-88
2023/03/31 10:41:08;;;;;;;14.27;6.30;;;11.10;99.90;;;;;;5058735;28;20395;-88
2023/03/31 10:43:50;;;;;;;19.30;11.48;;;11.20;99.90;;;;;;5058583;28;20047;-88
2023/03/31 10:46:16;;;;;;;15.65;8.77;;;11.10;99.90;;;;;;5076530;28;20044;-88
2023/03/31 10:48:43;;;;;;;10.63;6.30;;;11.20;99.90;;;;;;5058531;28;20045;-88
2023/03/31 10:51:25;;;;;;;8.85;5.43;;;11.10;99.90;;;;;;5058198;28;20131;-86
2023/03/31 10:53:53;;;;;;;7.57;4.38;;;11.20;99.90;;;;;;5058740;28;20051;-88
2023/03/31 10:56:37;;;;;;;10.52;7.03;;;11.20;99.90;;;;;;5058239;28;20044;-87
2023/03/31 10:59:32;;;;;;;9.32;4.60;;;11.20;99.90;;;;;;5058375;28;20549;-87
2023/03/31 11:02:16;;;;;;;9.35;4.60;;;11.20;99.90;;;;;;5050889;28;20060;-88
2023/03/31 11:05:12;;;;;;;12.60;6.30;;;11.10;99.90;;;;;;5058200;28;20135;-87
2023/03/31 11:08:01;;;;;;;12.23;5.25;;;11.10;99.90;;;;;;5075480;28;20482;-87
2023/03/31 11:10:52;;;;;;;13.13;5.80;;;11.10;99.90;;;;;;5058136;28;20139;-88
2023/03/31 11:13:56;;;;;;;11.25;7.15;;;11.20;99.90;;;;;;5075944;28;20040;-88
2023/03/31 11:16:37;;;;;;;10.05;5.68;;;11.20;99.90;;;;;;5075911;28;20048;-87
2023/03/31 11:19:20;;;;;;;12.23;6.22;;;11.30;99.90;;;;;;5057993;28;20101;-84
2023/03/31 11:21:55;;;;;;;16.55;6.35;;;11.50;99.90;;;;;;5076221;28;20040;-83
2023/03/31 11:24:44;;;;;;;18.38;7.10;;;11.50;99.90;;;;;;5075803;28;20088;-84
2023/03/31 11:27:38;;;;;;;15.50;5.88;;;11.60;99.90;;;;;;5057902;28;20045;-83
2023/03/31 11:30:05;;;;;;;13.98;6.93;;;11.70;99.90;;;;;;5075670;28;20098;-88
2023/03/31 11:32:49;;;;;;;13.70;6.00;;;11.70;99.90;;;;;;5075925;28;20036;-89
2023/03/31 11:35:34;;;;;;;17.15;6.75;;;12.00;99.90;;;;;;5057870;28;20131;-88
2023/03/31 11:38:39;;;;;;;18.70;7.53;;;12.00;99.90;;;;;;5105330;22;20500;-89
2023/03/31 11:41:29;;;;;;;15.15;6.40;;;12.10;99.90;;;;;;5021390;28;20102;-85
2023/03/31 11:44:02;;;;;;;18.98;10.15;;;12.00;99.90;;;;;;5037678;28;20041;-84
2023/03/31 11:46:38;;;;;;;12.60;6.00;;;12.00;99.90;;;;;;5038055;28;20079;-85
2023/03/31 11:49:14;;;;;;;18.50;6.45;;;12.10;99.90;;;;;;5055818;28;20037;-80
2023/03/31 11:51:52;;;;;;;17.50;7.05;;;12.20;99.90;;;;;;5055771;28;20036;-82
2023/03/31 11:54:32;;;;;;;17.02;6.25;;;12.50;99.90;;;;;;5055468;28;20512;-81
2023/03/31 11:57:04;;;;;;;17.77;5.95;;;12.50;99.90;;;;;;5037523;28;20048;-85
2023/03/31 11:59:31;;;;;;;14.98;7.47;;;12.50;99.90;;;;;;5037708;28;20479;-82
2023/03/31 12:02:11;;;;;;;13.02;5.03;;;12.70;99.90;;;;;;5055640;28;20048;-83
2023/03/31 12:04:41;;;;;;;18.92;7.15;;;12.60;99.90;;;;;;5036037;28;20064;-82
2023/03/31 12:07:22;;;;;;;15.15;5.70;;;12.80;99.90;;;;;;5037294;28;20053;-84
2023/03/31 12:10:04;;;;;;;10.63;5.32;;;12.70;99.90;;;;;;5037073;28;20127;-85
2023/03/31 12:12:34;;;;;;;16.52;5.00;;;12.60;99.90;;;;;;5037398;28;20588;-83
2023/03/31 12:15:11;;;;;;;11.27;5.00;;;12.50;99.90;;;;;;5054875;28;20077;-84
2023/03/31 12:17:40;;;;;;;16.23;4.25;;;12.50;99.90;;;;;;5036937;28;20095;-84
2023/03/31 12:20:28;;;;;;;14.68;4.28;;;12.50;99.90;;;;;;5054742;28;20044;-81
2023/03/31 12:22:56;;;;;;;15.23;4.60;;;12.50;99.90;;;;;;5054853;28;20055;-87
2023/03/31 12:25:22;;;;;;;13.88;5.28;;;12.50;99.90;;;;;;5036694;28;20045;-85
2023/03/31 12:27:53;;;;;;;17.13;7.22;;;12.40;99.90;;;;;;5037044;28;20037;-82
2023/03/31 12:30:41;;;;;;;13.52;5.20;;;12.40;99.90;;;;;;5054509;28;20040;-81
2023/03/31 12:33:21;;;;;;;15.52;5.10;;;12.40;99.90;;;;;;5054709;28;20071;-83
2023/03/31 12:36:16;;;;;;;9.95;4.35;;;12.40;99.90;;;;;;5036859;28;20144;-84
2023/03/31 12:39:07;;;;;;;13.25;4.20;;;12.30;99.90;;;;;;5006412;28;20076;-82
2023/03/31 12:41:51;;;;;;;13.77;4.35;;;12.30;99.90;;;;;;5036498;28;20063;-82
2023/03/31 12:44:28;;;;;;;17.30;4.00;;;12.40;99.90;;;;;;5036506;28;20389;-82
2023/03/31 12:47:12;;;;;;;10.32;3.63;;;12.40;99.90;;;;;;5034586;28;20046;-84
2023/03/31 12:50:35;;;;;;;10.27;3.42;;;12.50;99.90;;;;;;5016057;28;20148;-85
2023/03/31 12:53:23;;;;;;;9.07;2.65;;;12.50;99.90;;;;;;4938040;29;20055;-85
2023/03/31 12:55:54;;;;;;;7.75;2.75;;;12.50;99.90;;;;;;4938007;29;20054;-89
2023/03/31 12:58:30;;;;;;;9.32;2.35;;;12.40;99.90;;;;;;5016568;28;20069;-90
2023/03/31 13:01:23;;;;;;;5.53;1.98;;;12.20;99.90;;;;;;5034432;28;20041;-82
2023/03/31 13:04:21;;;;;;;4.43;1.92;;;12.20;99.90;;;;;;5033812;28;20041;-85
2023/03/31 13:06:53;;;;;;;9.10;2.28;;;12.20;99.90;;;;;;5033868;28;20048;-83
2023/03/31 13:09:18;;;;;;;8.65;2.30;;;12.10;99.90;;;;;;5016485;28;20046;-84
2023/03/31 13:11:48;;;;;;;7.00;2.30;;;12.20;99.90;;;;;;5016398;28;20136;-84
2023/03/31 13:14:25;;;;;;;11.20;2.45;;;12.20;99.90;;;;;;5033759;28;20037;-84
2023/03/31 13:16:53;;;;;;;7.90;2.13;;;12.30;99.90;;;;;;5033992;28;20052;-81
2023/03/31 13:19:33;;;;;;;8.65;2.80;;;12.50;99.90;;;;;;5016306;28;20516;-85
2023/03/31 13:22:01;;;;;;;8.20;2.45;;;12.70;99.90;;;;;;5033922;28;20049;-85
2023/03/31 13:24:30;;;;;;;9.00;3.15;;;12.60;99.90;;;;;;5033555;28;20517;-82